createdAt,value
2017-11-05T00:01:45.697Z,3.50
2017-11-05T00:05:12.440Z,4.10
2017-11-05T00:08:39.710Z,4.33
2017-11-05T00:12:06.026Z,3.20
2017-11-05T00:15:32.571Z,3.53
2017-11-05T00:18:58.921Z,3.30
2017-11-05T00:22:25.903Z,3.83
2017-11-05T00:25:51.848Z,3.73
2017-11-05T00:29:19.206Z,3.60
2017-11-05T00:32:45.642Z,3.00
2017-11-05T00:36:12.216Z,3.80
2017-11-05T00:39:38.639Z,3.20
2017-11-05T00:43:06.146Z,2.90
2017-11-05T00:46:33.378Z,2.93
2017-11-05T00:49:59.940Z,2.50
2017-11-05T00:53:26.847Z,3.50
2017-11-05T00:56:53.482Z,3.17
2017-11-05T01:00:20.762Z,3.47
2017-11-05T01:03:47.267Z,2.70
2017-11-05T01:07:13.988Z,3.10
2017-11-05T01:10:41.083Z,3.20
2017-11-05T01:14:08.671Z,3.37
2017-11-05T01:17:35.575Z,3.60
2017-11-05T01:21:02.439Z,2.80
2017-11-05T01:24:29.907Z,2.67
2017-11-05T01:27:57.775Z,3.00
2017-11-05T01:31:26.181Z,3.47
2017-11-05T01:34:52.706Z,3.17
2017-11-05T01:38:20.471Z,3.00
2017-11-05T01:41:49.009Z,3.03
2017-11-05T01:45:15.533Z,2.87
2017-11-05T01:48:42.230Z,3.43
2017-11-05T01:52:08.671Z,3.10
2017-11-05T01:55:37.267Z,2.97
2017-11-05T01:59:03.754Z,2.50
2017-11-05T02:02:31.348Z,2.60
2017-11-05T02:05:58.131Z,2.53
2017-11-05T02:09:25.835Z,2.40
2017-11-05T02:12:52.326Z,2.60
2017-11-05T02:16:18.858Z,2.40
2017-11-05T02:19:45.998Z,2.40
2017-11-05T02:23:13.491Z,2.50
2017-11-05T02:26:39.786Z,2.63
2017-11-05T02:30:07.051Z,1.90
2017-11-05T02:33:33.840Z,2.80
2017-11-05T02:37:00.485Z,2.47
2017-11-05T02:40:27.004Z,2.77
2017-11-05T02:43:54.731Z,2.47
2017-11-05T02:47:21.896Z,2.80
2017-11-05T02:50:49.914Z,2.10
2017-11-05T02:54:16.459Z,2.00
2017-11-05T02:57:43.251Z,2.03
2017-11-05T03:01:11.018Z,2.67
2017-11-05T03:04:38.378Z,2.53
2017-11-05T03:08:06.154Z,2.10
2017-11-05T03:11:32.570Z,2.37
2017-11-05T03:14:59.241Z,2.20
2017-11-05T03:18:25.682Z,2.47
2017-11-05T03:21:52.187Z,2.10
2017-11-05T03:25:19.427Z,2.40
2017-11-05T03:28:45.926Z,2.13
2017-11-05T03:32:13.360Z,1.80
2017-11-05T03:35:40.263Z,2.07
2017-11-05T03:39:06.955Z,2.00
2017-11-05T03:42:33.687Z,1.70
2017-11-05T03:46:01.180Z,2.30
2017-11-05T03:49:28.211Z,2.10
2017-11-05T03:52:55.554Z,2.00
2017-11-05T03:56:22.419Z,1.93
2017-11-05T03:59:50.066Z,2.20
2017-11-05T04:03:17.591Z,1.60
2017-11-05T04:06:45.295Z,2.00
2017-11-05T04:10:11.759Z,2.17
2017-11-05T04:13:38.519Z,2.07
2017-11-05T04:17:04.986Z,1.90
2017-11-05T04:20:31.394Z,1.73
2017-11-05T04:23:57.987Z,2.23
2017-11-05T04:27:25.922Z,2.37
2017-11-05T04:30:52.547Z,1.97
2017-11-05T04:34:19.675Z,1.63
2017-11-05T04:37:47.282Z,2.17
2017-11-05T04:41:13.830Z,1.73
2017-11-05T04:44:40.555Z,1.80
2017-11-05T04:48:09.243Z,2.00
2017-11-05T04:51:40.637Z,2.03
2017-11-05T04:55:07.560Z,1.97
2017-11-05T04:58:33.948Z,1.90
2017-11-05T05:02:01.534Z,1.47
2017-11-05T05:05:28.809Z,1.67
2017-11-05T05:08:58.142Z,1.67
2017-11-05T05:12:28.369Z,1.97
2017-11-05T05:15:55.462Z,2.00
2017-11-05T05:19:21.814Z,1.73
2017-11-05T05:22:48.552Z,2.60
2017-11-05T05:26:15.050Z,2.47
2017-11-05T05:29:42.251Z,2.70
2017-11-05T05:33:08.782Z,1.90
2017-11-05T05:36:35.767Z,2.03
2017-11-05T05:40:02.851Z,2.33
2017-11-05T05:43:29.692Z,2.10
2017-11-05T05:46:59.363Z,2.47
2017-11-05T05:50:30.510Z,2.50
2017-11-05T05:53:59.875Z,2.67
2017-11-05T05:57:26.980Z,2.53
2017-11-05T06:00:56.472Z,2.20
2017-11-05T06:04:27.313Z,2.77
2017-11-05T06:07:58.106Z,3.30
2017-11-05T06:11:25.445Z,3.00
2017-11-05T06:14:52.974Z,2.87
2017-11-05T06:18:19.463Z,2.10
2017-11-05T06:21:46.635Z,2.70
2017-11-05T06:25:14.030Z,2.07
2017-11-05T06:28:40.902Z,2.37
2017-11-05T06:32:08.543Z,1.90
2017-11-05T06:35:35.186Z,2.30
2017-11-05T06:39:02.730Z,2.50
2017-11-05T06:42:30.052Z,2.10
2017-11-05T06:45:56.911Z,1.70
2017-11-05T06:49:24.314Z,1.70
2017-11-05T06:52:51.174Z,1.70
2017-11-05T06:56:17.847Z,1.53
2017-11-05T06:59:44.935Z,1.50
2017-11-05T07:03:12.318Z,1.70
2017-11-05T07:06:39.915Z,1.63
2017-11-05T07:10:06.625Z,1.63
2017-11-05T07:13:33.229Z,1.20
2017-11-05T07:17:00.145Z,1.30
2017-11-05T07:20:26.911Z,1.57
2017-11-05T07:23:53.484Z,1.30
2017-11-05T07:27:24.337Z,1.43
2017-11-05T07:30:51.368Z,1.13
2017-11-05T07:34:18.459Z,1.43
2017-11-05T07:37:45.964Z,1.70
2017-11-05T07:41:12.620Z,5.47
2017-11-05T07:44:39.679Z,3.13
2017-11-05T07:48:06.667Z,2.90
2017-11-05T07:51:34.649Z,3.30
2017-11-05T07:55:01.468Z,3.90
2017-11-05T07:58:28.482Z,4.50
2017-11-05T08:01:55.175Z,3.23
2017-11-05T08:05:21.614Z,3.40
2017-11-05T08:08:48.369Z,3.20
2017-11-05T08:26:28.650Z,4.87
2017-11-05T08:29:55.953Z,5.00
2017-11-05T08:33:23.485Z,4.30
2017-11-05T08:36:50.283Z,3.90
2017-11-05T08:40:22.338Z,3.57
2017-11-05T08:43:48.778Z,4.20
2017-11-05T08:47:16.264Z,3.27
2017-11-05T08:50:43.105Z,3.43
2017-11-05T08:54:09.755Z,3.43
2017-11-05T08:57:37.870Z,3.47
2017-11-05T09:01:04.996Z,2.83
2017-11-05T09:04:31.454Z,2.97
2017-11-05T09:07:58.834Z,2.57
2017-11-05T09:11:25.888Z,3.43
2017-11-05T09:14:52.507Z,3.03
2017-11-05T09:18:19.091Z,2.10
2017-11-05T09:21:46.058Z,2.30
2017-11-05T09:25:12.798Z,2.50
2017-11-05T09:28:39.704Z,2.13
2017-11-05T09:32:06.702Z,2.63
2017-11-05T09:35:34.188Z,2.17
2017-11-05T09:39:12.422Z,2.30
2017-11-05T09:42:39.923Z,2.23
2017-11-05T09:46:06.450Z,2.07
2017-11-05T09:49:33.572Z,2.10
2017-11-05T09:53:00.665Z,1.93
2017-11-05T09:56:28.562Z,2.80
2017-11-05T09:59:56.471Z,2.23
2017-11-05T10:03:27.873Z,2.77
2017-11-05T10:06:54.640Z,2.23
2017-11-05T10:10:21.470Z,2.70
2017-11-05T10:13:48.776Z,1.90
2017-11-05T10:17:15.088Z,2.07
2017-11-05T10:20:42.526Z,2.00
2017-11-05T10:24:31.217Z,1.87
2017-11-05T10:28:03.355Z,2.27
2017-11-05T10:31:30.286Z,2.10
2017-11-05T10:34:56.283Z,1.83
2017-11-05T10:38:23.166Z,1.80
2017-11-05T10:41:50.226Z,1.80
2017-11-05T10:45:17.522Z,2.20
2017-11-05T10:48:44.675Z,1.70
2017-11-05T10:52:14.460Z,1.57
2017-11-05T10:55:42.180Z,2.20
2017-11-05T11:06:10.741Z,1.57
2017-11-05T11:09:37.421Z,1.60
2017-11-05T11:13:03.844Z,1.80
2017-11-05T11:16:35.214Z,2.00
2017-11-05T11:20:01.514Z,2.10
2017-11-05T11:26:58.650Z,1.80
2017-11-05T11:30:25.163Z,2.47
2017-11-05T11:33:52.106Z,1.80
2017-11-05T11:37:19.263Z,2.20
2017-11-05T11:40:46.026Z,2.43
2017-11-05T11:44:15.945Z,2.40
2017-11-05T11:47:42.030Z,2.10
2017-11-05T11:51:09.183Z,2.50
2017-11-05T11:54:35.325Z,3.20
2017-11-05T11:58:01.795Z,2.10
2017-11-05T12:01:29.245Z,2.30
2017-11-05T12:04:56.451Z,2.70
2017-11-05T12:08:23.437Z,2.40
2017-11-05T12:11:49.817Z,2.10
2017-11-05T12:15:15.869Z,2.07
2017-11-05T12:18:42.705Z,2.97
2017-11-05T12:22:11.136Z,2.73
2017-11-05T12:25:38.112Z,2.23
2017-11-05T12:29:05.569Z,3.67
2017-11-05T12:32:31.938Z,2.77
2017-11-05T12:35:58.172Z,2.33
2017-11-05T12:39:29.080Z,3.20
2017-11-05T12:46:26.475Z,2.37
2017-11-05T12:49:57.791Z,2.73
2017-11-05T12:53:26.456Z,2.83
2017-11-05T12:56:53.915Z,2.90
2017-11-05T13:00:21.052Z,3.33
2017-11-05T13:03:47.748Z,2.20
2017-11-05T13:07:16.685Z,2.87
2017-11-05T13:10:43.924Z,2.57
2017-11-05T13:14:11.364Z,2.50
2017-11-05T13:17:38.272Z,2.60
2017-11-05T13:21:05.384Z,2.37
2017-11-05T13:24:32.799Z,2.33
2017-11-05T13:28:00.155Z,2.27
2017-11-05T13:31:27.776Z,7.03
2017-11-05T13:34:55.304Z,8.17
2017-11-05T13:38:23.359Z,9.20
2017-11-05T13:41:49.995Z,8.00
2017-11-05T13:45:16.869Z,8.73
2017-11-05T13:48:44.452Z,7.17
2017-11-05T13:52:11.657Z,7.00
2017-11-05T13:55:38.442Z,6.33
2017-11-05T13:59:04.730Z,6.67
2017-11-05T14:02:32.629Z,5.63
2017-11-05T14:06:00.146Z,5.10
2017-11-05T14:09:26.771Z,5.00
2017-11-05T14:12:54.223Z,5.60
2017-11-05T14:16:20.828Z,5.27
2017-11-05T14:19:47.308Z,4.70
2017-11-05T14:23:14.451Z,5.23
2017-11-05T14:26:40.957Z,5.00
2017-11-05T14:30:07.507Z,5.47
2017-11-05T14:33:34.595Z,4.17
2017-11-05T14:37:05.423Z,4.60
2017-11-05T14:40:32.731Z,3.67
2017-11-05T14:43:59.774Z,5.03
2017-11-05T14:47:26.874Z,3.70
2017-11-05T14:50:54.580Z,4.77
2017-11-05T14:54:22.147Z,4.63
2017-11-05T14:57:48.810Z,3.80
2017-11-05T15:01:17.084Z,2.43
2017-11-05T15:04:53.136Z,2.63
2017-11-05T15:08:20.544Z,3.90
2017-11-05T15:11:47.190Z,2.57
2017-11-05T15:15:16.205Z,3.30
2017-11-05T15:18:45.011Z,2.80
2017-11-05T15:22:11.453Z,3.17
2017-11-05T15:25:40.053Z,2.70
2017-11-05T15:29:06.647Z,2.50
2017-11-05T15:32:35.446Z,2.80
2017-11-05T15:36:02.791Z,2.40
2017-11-05T15:39:41.571Z,2.70
2017-11-05T15:43:13.522Z,2.83
2017-11-05T15:46:40.633Z,2.53
2017-11-05T15:50:07.315Z,2.37
2017-11-05T15:53:34.020Z,2.53
2017-11-05T15:57:01.611Z,2.47
2017-11-05T16:00:28.454Z,2.07
2017-11-05T16:03:56.856Z,2.77
2017-11-05T16:07:24.432Z,2.60
2017-11-05T16:10:55.136Z,2.53
2017-11-05T16:14:22.834Z,2.70
2017-11-05T16:17:50.643Z,2.40
2017-11-05T16:21:18.546Z,2.60
2017-11-05T16:24:46.287Z,2.60
2017-11-05T16:28:13.457Z,3.17
2017-11-05T16:31:41.826Z,2.40
2017-11-05T16:35:09.213Z,2.20
2017-11-05T16:38:43.422Z,2.77
2017-11-05T16:42:10.056Z,2.40
2017-11-05T16:45:37.092Z,2.60
2017-11-05T16:49:05.802Z,2.80
2017-11-05T16:52:32.485Z,2.17
2017-11-05T16:55:59.831Z,2.20
2017-11-05T16:59:32.273Z,2.90
2017-11-05T17:03:01.016Z,2.70
2017-11-05T17:06:49.640Z,2.10
2017-11-05T17:10:19.003Z,2.80
2017-11-05T17:17:17.155Z,2.73
2017-11-05T17:20:44.247Z,2.50
2017-11-05T17:24:13.079Z,2.93
2017-11-05T17:27:40.535Z,3.10
2017-11-05T17:31:06.902Z,2.50
2017-11-05T17:34:34.258Z,3.30
2017-11-05T17:38:01.236Z,3.07
2017-11-05T17:41:29.795Z,4.20
2017-11-05T17:44:58.425Z,6.47
2017-11-05T17:48:25.485Z,4.53
2017-11-05T17:51:52.270Z,5.33
2017-11-05T17:55:18.909Z,6.63
2017-11-05T17:58:47.288Z,6.50
2017-11-05T18:02:15.604Z,8.47
2017-11-05T18:05:42.187Z,8.57
2017-11-05T18:09:10.720Z,7.97
2017-11-05T18:12:38.163Z,9.07
2017-11-05T18:16:05.656Z,9.27
2017-11-05T18:19:32.150Z,11.43
2017-11-05T18:22:59.878Z,16.37
2017-11-05T18:26:31.046Z,16.20
2017-11-05T18:29:57.906Z,19.60
2017-11-05T18:33:26.581Z,23.40
2017-11-05T18:36:53.789Z,23.00
2017-11-05T18:40:21.537Z,25.40
2017-11-05T18:43:48.456Z,25.63
2017-11-05T18:47:15.141Z,24.77
2017-11-05T18:50:42.377Z,25.27
2017-11-05T18:54:09.005Z,24.73
2017-11-05T18:57:36.436Z,22.57
2017-11-05T19:01:03.849Z,22.80
2017-11-05T19:04:31.237Z,22.30
2017-11-05T19:07:57.983Z,21.63
2017-11-05T19:11:26.105Z,20.07
2017-11-05T19:14:53.521Z,18.50
2017-11-05T19:18:21.229Z,18.60
2017-11-05T19:21:48.802Z,17.60
2017-11-05T19:25:15.568Z,16.67
2017-11-05T19:28:42.182Z,15.80
2017-11-05T19:32:10.719Z,16.80
2017-11-05T19:35:39.573Z,15.00
2017-11-05T19:39:07.828Z,16.50
2017-11-05T19:42:35.773Z,13.30
2017-11-05T19:46:03.406Z,14.47
2017-11-05T19:49:30.419Z,13.23
2017-11-05T19:53:04.936Z,12.43
2017-11-05T19:56:33.644Z,11.13
2017-11-05T20:00:00.499Z,11.20
2017-11-05T20:03:27.506Z,10.57
2017-11-05T20:06:54.152Z,9.87
2017-11-05T20:10:21.102Z,9.90
2017-11-05T20:13:48.165Z,9.87
2017-11-05T20:17:14.841Z,8.10
2017-11-05T20:20:41.481Z,9.17
2017-11-05T20:24:08.251Z,8.97
2017-11-05T20:27:39.714Z,8.00
2017-11-05T20:31:13.513Z,6.80
2017-11-05T20:34:50.205Z,6.53
2017-11-05T20:38:17.016Z,7.63
2017-11-05T20:41:44.545Z,6.90
2017-11-05T20:45:12.198Z,5.67
2017-11-05T20:48:41.596Z,5.60
2017-11-05T20:52:11.351Z,5.37
2017-11-05T20:55:42.349Z,5.80
2017-11-05T20:59:09.391Z,5.53
2017-11-05T21:02:37.305Z,5.90
2017-11-05T21:06:05.535Z,5.43
2017-11-05T21:09:33.109Z,5.97
2017-11-05T21:13:03.268Z,6.03
2017-11-05T21:16:30.367Z,4.90
2017-11-05T21:19:57.070Z,5.27
2017-11-05T21:23:25.783Z,5.40
2017-11-05T21:26:54.984Z,4.97
2017-11-05T21:30:22.889Z,4.70
2017-11-05T21:33:55.603Z,4.67
2017-11-05T21:37:22.968Z,4.77
2017-11-05T21:40:49.833Z,4.60
2017-11-05T21:44:17.744Z,4.33
2017-11-05T21:47:45.483Z,4.43
2017-11-05T21:51:13.784Z,4.57
2017-11-05T21:54:41.019Z,4.20
2017-11-05T21:58:08.877Z,3.50
2017-11-05T22:01:36.365Z,4.33
2017-11-05T22:05:04.006Z,3.33
2017-11-05T22:08:30.996Z,3.50
2017-11-05T22:12:00.714Z,4.10
2017-11-05T22:15:28.547Z,3.90
2017-11-05T22:18:55.660Z,3.63
2017-11-05T22:22:22.675Z,3.50
2017-11-05T22:25:51.638Z,4.07
2017-11-05T22:29:19.578Z,3.00
2017-11-05T22:32:46.739Z,3.47
2017-11-05T22:36:16.146Z,3.43
2017-11-05T22:39:42.586Z,3.47
2017-11-05T22:43:09.540Z,3.10
2017-11-05T22:46:37.184Z,2.97
2017-11-05T22:50:03.853Z,3.43
2017-11-05T22:53:31.109Z,2.70
2017-11-05T22:56:57.556Z,3.80
2017-11-05T23:00:24.313Z,3.30
2017-11-05T23:03:51.974Z,3.00
2017-11-05T23:07:19.014Z,3.50
2017-11-05T23:10:46.214Z,3.07
2017-11-05T23:14:15.052Z,2.20
2017-11-05T23:17:43.308Z,3.07
2017-11-05T23:21:10.839Z,3.13
2017-11-05T23:24:41.863Z,3.20
2017-11-05T23:28:11.448Z,2.83
2017-11-05T23:31:38.871Z,4.10
2017-11-05T23:35:05.948Z,2.90
2017-11-05T23:38:33.208Z,2.73
2017-11-05T23:42:01.043Z,2.80
2017-11-05T23:45:29.383Z,3.50
2017-11-05T23:48:55.999Z,2.80
2017-11-05T23:52:22.556Z,2.90
2017-11-05T23:55:49.455Z,2.43
2017-11-05T23:59:16.027Z,2.90
